Arklow Vale — PCZV — position and weather

sailwx.info

Track history (hours):
 
Tides and Currents Weather Stations Pressure Air Temp Water Temp Dewpoint Dewpoint Depression Visibility Wind Speed Wind Dir Waves Ship Positions

Arklow Vale

Last reported at 2017-Dec-09 19:57 UTC. Time now 2017-Dec-14 08:23 UTC.
Position N 38°07' W 009°55'.

Length 87 m; draft 4.5 m.

Type: Cargo ship. MMSI: 244750645.

Date/timePositionNaut miles runAvg speedWind from/ knotsBaromVisibWave heightAir tempDewpointWater temp
2017-Dec-09 19:57N 38°07' W 009°55'1012.2
2017-Dec-09 19:07N 38°17' W 009°58'212.1
2017-Dec-09 19:00N 38°18' W 009°58'612.2
2017-Dec-09 18:30N 38°24' W 009°60'612.1
2017-Dec-09 18:00N 38°30' W 010°02'612.2
2017-Dec-09 17:30N 38°36' W 010°04'612.6
2017-Dec-09 17:00N 38°42' W 010°05'612.2
2017-Dec-09 16:30N 38°48' W 010°05'612.3
2017-Dec-09 16:00N 38°54' W 010°05'612.3
2017-Dec-09 15:30N 39°01' W 010°05'612.3
2017-Dec-09 15:00N 39°07' W 010°05'612.5
2017-Dec-09 14:30N 39°13' W 010°05'1012.4
2017-Dec-09 13:41N 39°23' W 010°05'  
2017-Dec-04 10:30N 50°14' W 001°34'510.0
2017-Dec-04 10:00N 50°15' W 001°27'40 9.1
2017-Dec-04 05:36N 50°26' W 000°27'111.8
2017-Dec-04 05:30N 50°26' W 000°25'612.2
2017-Dec-04 05:00N 50°28' W 000°16'612.8
2017-Dec-04 04:30N 50°30' W 000°06'713.2
2017-Dec-04 04:00N 50°32' E 000°03'713.4
2017-Dec-04 03:31N 50°34' E 000°13'713.4
2017-Dec-04 02:58N 50°37' E 000°24'613.1
2017-Dec-04 02:30N 50°38' E 000°33'612.7
2017-Dec-04 02:00N 50°42' E 000°42'612.2
2017-Dec-04 01:30N 50°45' E 000°50'1011.2
2017-Dec-04 00:35N 50°51' E 001°03'110.7
2017-Dec-04 00:29N 50°52' E 001°04'510.0
2017-Dec-04 00:00N 50°55' E 001°10'5 9.7
2017-Dec-03 23:30N 50°58' E 001°16'5 9.2
2017-Dec-03 23:01N 51°01' E 001°21'5 9.7
2017-Dec-03 22:31N 51°04' E 001°27'611.2
2017-Dec-03 22:00N 51°08' E 001°34'612.0
2017-Dec-03 21:30N 51°12' E 001°42'713.2
2017-Dec-03 21:01N 51°17' E 001°48'714.3
2017-Dec-03 20:30N 51°23' E 001°54'714.5
2017-Dec-03 20:00N 51°29' E 002°01'714.3
2017-Dec-03 19:30N 51°35' E 002°08'28111.3
2017-Dec-02 18:43N 55°29' E 006°29'211.5
2017-Dec-02 18:30N 55°31' E 006°32'611.4
2017-Dec-02 17:59N 55°36' E 006°37'611.3
2017-Dec-02 17:29N 55°41' E 006°42'511.3
2017-Dec-02 17:00N 55°45' E 006°47'17811.2
2017-Dec-02 01:08N 58°23' E 009°20'213.0
2017-Dec-02 01:00N 58°25' E 009°22'613.1
2017-Dec-02 00:30N 58°31' E 009°26'712.9
2017-Dec-02 00:00N 58°37' E 009°30'612.7
2017-Dec-01 23:30N 58°43' E 009°34'612.6
2017-Dec-01 23:00N 58°49' E 009°38'611.9
2017-Dec-01 22:30N 58°54' E 009°45'611.3
2017-Dec-01 22:00N 58°59' E 009°47'5 9.2
2017-Dec-01 21:30N 59°03' E 009°41'5 8.7
2017-Dec-01 20:58N 59°07' E 009°37'0 0.0
2017-Dec-01 20:28N 59°07' E 009°37'0 0.0
2017-Dec-01 19:58N 59°07' E 009°37'0 0.0
2017-Dec-01 19:28N 59°07' E 009°37'0 0.0
2017-Dec-01 18:58N 59°07' E 009°37'0 0.0
2017-Dec-01 18:28N 59°07' E 009°37'0 0.0
2017-Dec-01 17:58N 59°07' E 009°37'0 0.0
2017-Dec-01 17:28N 59°07' E 009°37'0 0.0
2017-Dec-01 16:58N 59°07' E 009°37'0 0.0
2017-Dec-01 16:28N 59°07' E 009°37'0 0.0
2017-Dec-01 15:58N 59°07' E 009°37'0 0.0
2017-Dec-01 15:28N 59°07' E 009°37'0 0.0
2017-Dec-01 14:58N 59°07' E 009°37'0 0.0
2017-Dec-01 14:28N 59°07' E 009°37'0 0.0
2017-Dec-01 13:58N 59°07' E 009°37'0 0.0
2017-Dec-01 13:28N 59°07' E 009°37'0 0.0
2017-Dec-01 12:58N 59°07' E 009°37'0 0.0
2017-Dec-01 12:28N 59°07' E 009°37'0 0.0
2017-Dec-01 11:58N 59°07' E 009°37'0 0.0
2017-Dec-01 11:28N 59°07' E 009°37'0 0.0
2017-Dec-01 10:58N 59°07' E 009°37'0 0.0
2017-Dec-01 10:28N 59°07' E 009°37'0 0.0
2017-Dec-01 09:58N 59°07' E 009°37'0 0.0
2017-Dec-01 09:28N 59°07' E 009°37'0 0.0
2017-Dec-01 08:58N 59°07' E 009°37'0 0.0
2017-Dec-01 08:28N 59°07' E 009°37'0 0.0
2017-Dec-01 07:58N 59°07' E 009°37'0 0.0
2017-Dec-01 07:28N 59°07' E 009°37'0 0.0
2017-Dec-01 06:58N 59°07' E 009°37'0 0.0
2017-Dec-01 06:28N 59°07' E 009°37'0 0.0
2017-Dec-01 05:58N 59°07' E 009°37'0 0.0
2017-Dec-01 05:28N 59°07' E 009°37'0 0.0
2017-Dec-01 04:55N 59°07' E 009°37'0 0.0
2017-Dec-01 04:28N 59°07' E 009°37'0 0.0
2017-Dec-01 03:58N 59°07' E 009°37'0 0.0
2017-Dec-01 03:28N 59°07' E 009°37'0 0.0
2017-Dec-01 02:58N 59°07' E 009°37'0 0.0
2017-Dec-01 02:28N 59°07' E 009°37'0 0.0
2017-Dec-01 01:58N 59°07' E 009°37'0 0.0
2017-Dec-01 01:28N 59°07' E 009°37'0 0.0
2017-Dec-01 00:58N 59°07' E 009°37'0 0.0
2017-Dec-01 00:25N 59°07' E 009°37'0 0.0
2017-Nov-30 23:58N 59°07' E 009°37'0 0.0
2017-Nov-30 23:28N 59°07' E 009°37'0 0.0
2017-Nov-30 22:58N 59°07' E 009°37'0 0.0
2017-Nov-30 22:28N 59°07' E 009°37'0 0.0
2017-Nov-30 21:58N 59°07' E 009°37'0 0.0
2017-Nov-30 21:28N 59°07' E 009°37'0 0.0
2017-Nov-30 20:58N 59°07' E 009°37'0 0.0
2017-Nov-30 20:28N 59°07' E 009°37'0 0.0
2017-Nov-30 19:58N 59°07' E 009°37'0 0.0
2017-Nov-30 19:28N 59°07' E 009°37'0 0.0
2017-Nov-30 18:58N 59°07' E 009°37'0 0.0
2017-Nov-30 18:28N 59°07' E 009°37'0 0.0
2017-Nov-30 17:58N 59°07' E 009°37'0 0.0
2017-Nov-30 17:28N 59°07' E 009°37'0 0.0
2017-Nov-30 16:58N 59°07' E 009°37'0 0.0
2017-Nov-30 16:28N 59°07' E 009°37'0 0.0
2017-Nov-30 15:58N 59°07' E 009°37'0 0.0
2017-Nov-30 15:30N 59°07' E 009°37'2 3.4
2017-Nov-30 15:00N 59°05' E 009°38'4 8.2
2017-Nov-30 14:30N 59°02' E 009°43'5 9.8
2017-Nov-30 14:00N 58°58' E 009°45'611.1
2017-Nov-30 13:30N 58°52' E 009°40'611.7
2017-Nov-30 13:00N 58°48' E 009°33'611.4
2017-Nov-30 12:30N 58°44' E 009°26'611.1
2017-Nov-30 11:59N 58°39' E 009°20'510.9
2017-Nov-30 11:30N 58°35' E 009°13'510.6
2017-Nov-30 11:00N 58°31' E 009°07'510.0
2017-Nov-30 10:30N 58°26' E 009°02'510.0
2017-Nov-30 10:00N 58°22' E 008°57'510.6
2017-Nov-30 09:30N 58°18' E 008°51'611.1
2017-Nov-30 09:00N 58°13' E 008°45'511.0
2017-Nov-30 08:30N 58°09' E 008°39'510.9
2017-Nov-30 08:00N 58°04' E 008°33'611.6
2017-Nov-30 07:30N 57°59' E 008°31'  
Track history (hours):
 
Tides and Currents Weather Stations Pressure Air Temp Water Temp Dewpoint Dewpoint Depression Visibility Wind Speed Wind Dir Waves Ship Positions

Arklow Vale

Last reported at 2017-Dec-09 19:57 UTC. Time now 2017-Dec-14 08:23 UTC.
Position N 38°07' W 009°55'.

Length 87 m; draft 4.5 m.

Type: Cargo ship. MMSI: 244750645.

Date/timePositionNaut miles runAvg speedWind from/ knotsBaromVisibWave heightAir tempDewpointWater temp
2017-Dec-09 19:57N 38°07' W 009°55'1012.2
2017-Dec-09 19:07N 38°17' W 009°58'212.1
2017-Dec-09 19:00N 38°18' W 009°58'612.2
2017-Dec-09 18:30N 38°24' W 009°60'612.1
2017-Dec-09 18:00N 38°30' W 010°02'612.2
2017-Dec-09 17:30N 38°36' W 010°04'612.6
2017-Dec-09 17:00N 38°42' W 010°05'612.2
2017-Dec-09 16:30N 38°48' W 010°05'612.3
2017-Dec-09 16:00N 38°54' W 010°05'612.3
2017-Dec-09 15:30N 39°01' W 010°05'612.3
2017-Dec-09 15:00N 39°07' W 010°05'612.5
2017-Dec-09 14:30N 39°13' W 010°05'1012.4
2017-Dec-09 13:41N 39°23' W 010°05'  
2017-Dec-04 10:30N 50°14' W 001°34'510.0
2017-Dec-04 10:00N 50°15' W 001°27'40 9.1
2017-Dec-04 05:36N 50°26' W 000°27'111.8
2017-Dec-04 05:30N 50°26' W 000°25'612.2
2017-Dec-04 05:00N 50°28' W 000°16'612.8
2017-Dec-04 04:30N 50°30' W 000°06'713.2
2017-Dec-04 04:00N 50°32' E 000°03'713.4
2017-Dec-04 03:31N 50°34' E 000°13'713.4
2017-Dec-04 02:58N 50°37' E 000°24'613.1
2017-Dec-04 02:30N 50°38' E 000°33'612.7
2017-Dec-04 02:00N 50°42' E 000°42'612.2
2017-Dec-04 01:30N 50°45' E 000°50'1011.2
2017-Dec-04 00:35N 50°51' E 001°03'110.7
2017-Dec-04 00:29N 50°52' E 001°04'510.0
2017-Dec-04 00:00N 50°55' E 001°10'5 9.7
2017-Dec-03 23:30N 50°58' E 001°16'5 9.2
2017-Dec-03 23:01N 51°01' E 001°21'5 9.7
2017-Dec-03 22:31N 51°04' E 001°27'611.2
2017-Dec-03 22:00N 51°08' E 001°34'612.0
2017-Dec-03 21:30N 51°12' E 001°42'713.2
2017-Dec-03 21:01N 51°17' E 001°48'714.3
2017-Dec-03 20:30N 51°23' E 001°54'714.5
2017-Dec-03 20:00N 51°29' E 002°01'714.3
2017-Dec-03 19:30N 51°35' E 002°08'28111.3
2017-Dec-02 18:43N 55°29' E 006°29'211.5
2017-Dec-02 18:30N 55°31' E 006°32'611.4
2017-Dec-02 17:59N 55°36' E 006°37'611.3
2017-Dec-02 17:29N 55°41' E 006°42'511.3
2017-Dec-02 17:00N 55°45' E 006°47'17811.2
2017-Dec-02 01:08N 58°23' E 009°20'213.0
2017-Dec-02 01:00N 58°25' E 009°22'613.1
2017-Dec-02 00:30N 58°31' E 009°26'712.9
2017-Dec-02 00:00N 58°37' E 009°30'612.7
2017-Dec-01 23:30N 58°43' E 009°34'612.6
2017-Dec-01 23:00N 58°49' E 009°38'611.9
2017-Dec-01 22:30N 58°54' E 009°45'611.3
2017-Dec-01 22:00N 58°59' E 009°47'5 9.2
2017-Dec-01 21:30N 59°03' E 009°41'5 8.7
2017-Dec-01 20:58N 59°07' E 009°37'0 0.0
2017-Dec-01 20:28N 59°07' E 009°37'0 0.0
2017-Dec-01 19:58N 59°07' E 009°37'0 0.0
2017-Dec-01 19:28N 59°07' E 009°37'0 0.0
2017-Dec-01 18:58N 59°07' E 009°37'0 0.0
2017-Dec-01 18:28N 59°07' E 009°37'0 0.0
2017-Dec-01 17:58N 59°07' E 009°37'0 0.0
2017-Dec-01 17:28N 59°07' E 009°37'0 0.0
2017-Dec-01 16:58N 59°07' E 009°37'0 0.0
2017-Dec-01 16:28N 59°07' E 009°37'0 0.0
2017-Dec-01 15:58N 59°07' E 009°37'0 0.0
2017-Dec-01 15:28N 59°07' E 009°37'0 0.0
2017-Dec-01 14:58N 59°07' E 009°37'0 0.0
2017-Dec-01 14:28N 59°07' E 009°37'0 0.0
2017-Dec-01 13:58N 59°07' E 009°37'0 0.0
2017-Dec-01 13:28N 59°07' E 009°37'0 0.0
2017-Dec-01 12:58N 59°07' E 009°37'0 0.0
2017-Dec-01 12:28N 59°07' E 009°37'0 0.0
2017-Dec-01 11:58N 59°07' E 009°37'0 0.0
2017-Dec-01 11:28N 59°07' E 009°37'0 0.0
2017-Dec-01 10:58N 59°07' E 009°37'0 0.0
2017-Dec-01 10:28N 59°07' E 009°37'0 0.0
2017-Dec-01 09:58N 59°07' E 009°37'0 0.0
2017-Dec-01 09:28N 59°07' E 009°37'0 0.0
2017-Dec-01 08:58N 59°07' E 009°37'0 0.0
2017-Dec-01 08:28N 59°07' E 009°37'0 0.0
2017-Dec-01 07:58N 59°07' E 009°37'0 0.0
2017-Dec-01 07:28N 59°07' E 009°37'0 0.0
2017-Dec-01 06:58N 59°07' E 009°37'0 0.0
2017-Dec-01 06:28N 59°07' E 009°37'0 0.0
2017-Dec-01 05:58N 59°07' E 009°37'0 0.0
2017-Dec-01 05:28N 59°07' E 009°37'0 0.0
2017-Dec-01 04:55N 59°07' E 009°37'0 0.0
2017-Dec-01 04:28N 59°07' E 009°37'0 0.0
2017-Dec-01 03:58N 59°07' E 009°37'0 0.0
2017-Dec-01 03:28N 59°07' E 009°37'0 0.0
2017-Dec-01 02:58N 59°07' E 009°37'0 0.0
2017-Dec-01 02:28N 59°07' E 009°37'0 0.0
2017-Dec-01 01:58N 59°07' E 009°37'0 0.0
2017-Dec-01 01:28N 59°07' E 009°37'0 0.0
2017-Dec-01 00:58N 59°07' E 009°37'0 0.0
2017-Dec-01 00:25N 59°07' E 009°37'0 0.0
2017-Nov-30 23:58N 59°07' E 009°37'0 0.0
2017-Nov-30 23:28N 59°07' E 009°37'0 0.0
2017-Nov-30 22:58N 59°07' E 009°37'0 0.0
2017-Nov-30 22:28N 59°07' E 009°37'0 0.0
2017-Nov-30 21:58N 59°07' E 009°37'0 0.0
2017-Nov-30 21:28N 59°07' E 009°37'0 0.0
2017-Nov-30 20:58N 59°07' E 009°37'0 0.0
2017-Nov-30 20:28N 59°07' E 009°37'0 0.0
2017-Nov-30 19:58N 59°07' E 009°37'0 0.0
2017-Nov-30 19:28N 59°07' E 009°37'0 0.0
2017-Nov-30 18:58N 59°07' E 009°37'0 0.0
2017-Nov-30 18:28N 59°07' E 009°37'0 0.0
2017-Nov-30 17:58N 59°07' E 009°37'0 0.0
2017-Nov-30 17:28N 59°07' E 009°37'0 0.0
2017-Nov-30 16:58N 59°07' E 009°37'0 0.0
2017-Nov-30 16:28N 59°07' E 009°37'0 0.0
2017-Nov-30 15:58N 59°07' E 009°37'0 0.0
2017-Nov-30 15:30N 59°07' E 009°37'2 3.4
2017-Nov-30 15:00N 59°05' E 009°38'4 8.2
2017-Nov-30 14:30N 59°02' E 009°43'5 9.8
2017-Nov-30 14:00N 58°58' E 009°45'611.1
2017-Nov-30 13:30N 58°52' E 009°40'611.7
2017-Nov-30 13:00N 58°48' E 009°33'611.4
2017-Nov-30 12:30N 58°44' E 009°26'611.1
2017-Nov-30 11:59N 58°39' E 009°20'510.9
2017-Nov-30 11:30N 58°35' E 009°13'510.6
2017-Nov-30 11:00N 58°31' E 009°07'510.0
2017-Nov-30 10:30N 58°26' E 009°02'510.0
2017-Nov-30 10:00N 58°22' E 008°57'510.6
2017-Nov-30 09:30N 58°18' E 008°51'611.1
2017-Nov-30 09:00N 58°13' E 008°45'511.0
2017-Nov-30 08:30N 58°09' E 008°39'510.9
2017-Nov-30 08:00N 58°04' E 008°33'611.6
2017-Nov-30 07:30N 57°59' E 008°31'  

Dump ship's entire track history